Time;durP1;ratioP1;P1;durP2;ratioP2;P2;SDS_P1;SDS_P2;PMS_P1;PMS_P2;Temp;Humidity;BMP_temperature;BMP_pressure;BME280_temperature;BME280_humidity;BME280_pressure;Samples;Min_cycle;Max_cycle;Signal;HPM_P1;HPM_P2
2021/10/28 00:12:13;;;;;;;24.55;16.02;;;10.80;99.90;;;;;;5115039;28;20077;-70
2021/10/28 00:14:41;;;;;;;23.67;16.33;;;10.70;99.90;;;;;;5116435;27;20165;-70
2021/10/28 00:17:12;;;;;;;23.60;15.68;;;10.70;99.90;;;;;;5116006;28;20503;-70
2021/10/28 00:19:39;;;;;;;24.45;16.63;;;10.70;99.90;;;;;;5114642;28;20039;-71
2021/10/28 00:22:06;;;;;;;27.70;16.15;;;10.60;99.90;;;;;;5116127;28;20032;-71
2021/10/28 00:24:32;;;;;;;23.33;15.88;;;10.70;99.90;;;;;;5116632;28;20039;-71
2021/10/28 00:26:58;;;;;;;26.35;15.90;;;10.70;99.90;;;;;;5116271;28;20491;-70
2021/10/28 00:29:26;;;;;;;26.35;16.25;;;10.70;99.90;;;;;;5114665;28;20043;-71
2021/10/28 00:31:55;;;;;;;34.92;19.83;;;10.70;99.90;;;;;;5115983;28;20042;-71
2021/10/28 00:34:21;;;;;;;22.30;16.75;;;10.60;99.90;;;;;;5114966;28;20093;-71
2021/10/28 00:36:48;;;;;;;30.30;17.00;;;10.60;99.90;;;;;;5116199;28;20043;-71
2021/10/28 00:39:14;;;;;;;26.08;17.65;;;10.70;99.90;;;;;;5115978;28;20441;-71
2021/10/28 00:41:40;;;;;;;28.38;17.63;;;10.70;99.90;;;;;;5116304;28;20031;-70
2021/10/28 00:44:07;;;;;;;26.38;16.95;;;10.70;99.90;;;;;;5116032;28;20063;-71
2021/10/28 00:46:35;;;;;;;27.25;16.13;;;10.70;99.90;;;;;;5115676;28;20047;-70
2021/10/28 00:49:03;;;;;;;26.85;16.70;;;10.70;99.90;;;;;;5113868;28;20035;-71
2021/10/28 00:51:31;;;;;;;24.38;17.15;;;10.70;99.90;;;;;;5115769;28;20050;-71
2021/10/28 00:53:58;;;;;;;27.40;16.05;;;10.70;99.90;;;;;;5116137;28;20032;-71
2021/10/28 00:56:26;;;;;;;25.48;17.63;;;10.70;99.90;;;;;;5116035;28;20052;-70
2021/10/28 00:58:52;;;;;;;27.70;18.13;;;10.60;99.90;;;;;;5115405;28;20106;-70
2021/10/28 01:01:19;;;;;;;26.75;16.58;;;10.60;99.90;;;;;;5115468;28;20510;-70
2021/10/28 01:03:45;;;;;;;24.95;16.95;;;10.60;99.90;;;;;;5114036;28;20123;-70
2021/10/28 01:06:12;;;;;;;24.83;16.65;;;10.60;99.90;;;;;;5115821;28;20035;-70
2021/10/28 01:08:41;;;;;;;24.80;17.08;;;10.60;99.90;;;;;;5115512;28;20043;-71
2021/10/28 01:11:09;;;;;;;25.58;17.08;;;10.60;99.90;;;;;;5115786;28;20050;-71
2021/10/28 01:13:36;;;;;;;24.60;17.23;;;10.60;99.90;;;;;;5115058;28;20043;-71
2021/10/28 01:16:03;;;;;;;26.55;16.52;;;10.60;99.90;;;;;;5115014;28;20381;-70
2021/10/28 01:18:30;;;;;;;23.20;16.33;;;10.60;99.90;;;;;;5113238;28;20050;-71
2021/10/28 01:20:56;;;;;;;20.40;14.70;;;10.60;99.90;;;;;;5115099;28;20039;-71
2021/10/28 01:23:24;;;;;;;24.85;16.25;;;10.60;99.90;;;;;;5096674;28;20047;-70
2021/10/28 01:25:56;;;;;;;21.80;15.45;;;10.60;99.90;;;;;;5114360;28;20044;-71
2021/10/28 01:28:23;;;;;;;22.23;15.60;;;10.50;99.90;;;;;;5113802;28;20042;-71
2021/10/28 01:30:54;;;;;;;24.50;15.57;;;10.50;99.90;;;;;;5114802;28;20038;-71
2021/10/28 01:33:21;;;;;;;21.98;15.77;;;10.50;99.90;;;;;;5113524;28;20035;-70
2021/10/28 01:35:47;;;;;;;28.40;16.55;;;10.50;99.90;;;;;;5115432;28;20046;-70
2021/10/28 01:38:14;;;;;;;25.08;16.55;;;10.50;99.90;;;;;;5113600;28;20051;-70
2021/10/28 01:40:40;;;;;;;23.45;16.15;;;10.50;99.90;;;;;;5114675;28;20074;-70
2021/10/28 01:43:07;;;;;;;23.65;16.42;;;10.40;99.90;;;;;;5113635;28;20459;-70
2021/10/28 01:45:32;;;;;;;26.58;16.85;;;10.50;99.90;;;;;;5113644;28;20075;-70
2021/10/28 01:47:59;;;;;;;25.45;16.58;;;10.40;99.90;;;;;;5114576;28;20082;-70
2021/10/28 01:50:28;;;;;;;26.10;15.57;;;10.40;99.90;;;;;;5114573;28;20034;-70
2021/10/28 01:52:54;;;;;;;25.48;16.00;;;10.40;99.90;;;;;;5114401;28;20040;-70
2021/10/28 01:55:20;;;;;;;23.65;15.73;;;10.40;99.90;;;;;;5114537;28;20044;-70
2021/10/28 01:57:46;;;;;;;23.10;15.63;;;10.40;99.90;;;;;;5113156;28;20043;-70
2021/10/28 02:00:14;;;;;;;23.90;16.02;;;10.30;99.90;;;;;;5113908;28;20067;-70
2021/10/28 02:02:42;;;;;;;24.35;16.52;;;10.40;99.90;;;;;;5113044;28;20106;-70
2021/10/28 02:05:09;;;;;;;27.17;16.33;;;10.40;99.90;;;;;;5112949;28;20044;-70
2021/10/28 02:07:36;;;;;;;23.08;16.52;;;10.40;99.90;;;;;;5114868;28;20043;-70
2021/10/28 02:10:03;;;;;;;25.88;16.85;;;10.40;99.90;;;;;;5114059;28;20035;-70
2021/10/28 02:12:28;;;;;;;25.65;15.93;;;10.30;99.90;;;;;;5113043;28;20089;-70
2021/10/28 02:14:54;;;;;;;22.65;16.02;;;10.40;99.90;;;;;;5112959;28;20039;-70
2021/10/28 02:17:20;;;;;;;25.17;16.33;;;10.30;99.90;;;;;;5112967;28;20043;-70
2021/10/28 02:19:45;;;;;;;27.25;16.50;;;10.30;99.90;;;;;;5113744;28;20140;-70
2021/10/28 02:22:12;;;;;;;27.00;17.35;;;10.30;99.90;;;;;;5113212;28;20114;-70
2021/10/28 02:24:37;;;;;;;23.02;15.50;;;10.30;99.90;;;;;;5113822;28;20432;-70
2021/10/28 02:27:03;;;;;;;22.35;15.38;;;10.30;99.90;;;;;;5112904;28;20126;-70
2021/10/28 02:29:29;;;;;;;23.85;15.98;;;10.30;99.90;;;;;;5111543;28;20039;-70
2021/10/28 02:31:57;;;;;;;24.48;17.08;;;10.30;99.90;;;;;;5113900;28;20036;-71
2021/10/28 02:34:22;;;;;;;24.88;15.70;;;10.30;99.90;;;;;;5114083;28;20038;-70
2021/10/28 02:36:48;;;;;;;23.83;16.55;;;10.30;99.90;;;;;;5113798;28;20388;-70
2021/10/28 02:39:14;;;;;;;25.50;17.33;;;10.30;99.90;;;;;;5112647;28;20039;-70
2021/10/28 02:41:40;;;;;;;24.23;16.20;;;10.20;99.90;;;;;;5113633;28;20044;-70
2021/10/28 02:44:05;;;;;;;23.63;16.27;;;10.20;99.90;;;;;;5114096;28;20032;-70
2021/10/28 02:46:31;;;;;;;19.65;15.27;;;10.10;99.90;;;;;;5114063;28;20544;-70
2021/10/28 02:48:57;;;;;;;28.23;17.52;;;10.10;99.90;;;;;;5112689;28;20031;-70
2021/10/28 02:51:22;;;;;;;23.58;16.25;;;10.10;99.90;;;;;;5112207;28;20238;-70
2021/10/28 02:53:48;;;;;;;23.17;14.70;;;10.10;99.90;;;;;;5112479;28;20036;-70
2021/10/28 02:56:14;;;;;;;27.38;16.05;;;10.10;99.90;;;;;;5112477;28;20135;-70
2021/10/28 02:58:39;;;;;;;23.20;16.52;;;10.10;99.90;;;;;;5113410;28;20476;-70
2021/10/28 03:01:05;;;;;;;23.10;15.25;;;10.10;99.90;;;;;;5113968;28;20043;-70
2021/10/28 03:03:31;;;;;;;22.45;14.38;;;10.10;99.90;;;;;;5095761;28;20051;-70
2021/10/28 03:05:56;;;;;;;24.35;16.30;;;10.10;99.90;;;;;;5113794;28;20040;-70
2021/10/28 03:08:23;;;;;;;23.42;15.70;;;10.10;99.90;;;;;;5113768;28;20036;-70
2021/10/28 03:10:48;;;;;;;23.30;15.60;;;10.10;99.90;;;;;;5113598;28;20043;-70
2021/10/28 03:13:18;;;;;;;24.63;16.05;;;10.10;99.90;;;;;;5113827;28;20114;-70
2021/10/28 03:15:44;;;;;;;25.35;16.25;;;10.20;99.90;;;;;;5113453;28;20465;-70
2021/10/28 03:26:30;;;;;;;20.13;15.68;;;10.00;99.90;;;;;;5113844;28;20043;-70
2021/10/28 03:28:55;;;;;;;22.02;15.32;;;10.00;99.90;;;;;;5112620;28;20042;-70
2021/10/28 03:31:21;;;;;;;23.35;15.82;;;10.00;99.90;;;;;;5112021;28;20392;-70
2021/10/28 03:33:49;;;;;;;25.60;15.55;;;10.10;99.90;;;;;;5113697;28;20085;-70
2021/10/28 03:36:23;;;;;;;19.67;14.82;;;10.10;99.90;;;;;;5113162;28;20096;-70
2021/10/28 03:39:14;;;;;;;22.55;15.43;;;10.10;99.90;;;;;;5112072;28;20047;-70
2021/10/28 03:42:46;;;;;;;23.05;16.25;;;10.10;99.90;;;;;;5114149;28;20044;-70
2021/10/28 03:58:10;;;;;;;23.50;14.40;;;9.90;99.90;;;;;;5115718;28;20047;-70
2021/10/28 04:01:13;;;;;;;22.92;14.80;;;9.90;99.90;;;;;;5112003;28;20451;-70
2021/10/28 04:06:16;;;;;;;21.92;15.07;;;9.90;99.90;;;;;;5116756;28;20381;-70
2021/10/28 04:30:15;;;;;;;19.60;13.45;;;9.80;99.90;;;;;;5114726;28;20051;-70
2021/10/28 04:32:41;;;;;;;23.23;15.75;;;9.80;99.90;;;;;;5116287;28;20040;-70
2021/10/28 04:35:09;;;;;;;21.83;13.82;;;9.80;99.90;;;;;;5115987;28;20043;-70
2021/10/28 04:37:36;;;;;;;23.02;14.65;;;9.80;99.90;;;;;;5115897;28;20036;-70
2021/10/28 04:40:02;;;;;;;20.50;15.23;;;9.80;99.90;;;;;;5115929;28;20376;-70
2021/10/28 04:42:28;;;;;;;21.25;14.15;;;9.80;99.90;;;;;;5114462;28;20044;-70
2021/10/28 04:44:53;;;;;;;19.40;13.20;;;9.80;99.90;;;;;;5114417;28;20402;-70
2021/10/28 04:47:19;;;;;;;20.65;14.98;;;9.80;99.90;;;;;;5115811;28;20028;-70
2021/10/28 04:49:45;;;;;;;19.63;13.30;;;9.70;99.90;;;;;;5115321;28;20028;-70
2021/10/28 04:52:11;;;;;;;20.23;13.25;;;9.70;99.90;;;;;;5115496;28;20067;-70
2021/10/28 04:54:38;;;;;;;22.55;14.10;;;9.70;99.90;;;;;;5114955;28;20039;-70
2021/10/28 04:57:04;;;;;;;23.38;13.07;;;9.70;99.90;;;;;;5116153;27;20047;-70
2021/10/28 04:59:30;;;;;;;18.77;13.07;;;9.70;99.90;;;;;;5113980;28;20031;-70
2021/10/28 05:01:57;;;;;;;22.92;14.82;;;9.60;99.90;;;;;;5115037;28;20502;-70
2021/10/28 05:04:22;;;;;;;19.92;13.88;;;9.60;99.90;;;;;;5115668;28;20043;-70
2021/10/28 05:06:48;;;;;;;19.77;13.45;;;9.60;99.90;;;;;;5115471;28;20031;-70
2021/10/28 05:09:16;;;;;;;19.30;14.20;;;9.60;99.90;;;;;;5114718;28;20459;-70
2021/10/28 05:11:46;;;;;;;20.60;13.55;;;9.60;99.90;;;;;;5114139;28;20048;-70
2021/10/28 05:14:11;;;;;;;23.27;15.23;;;9.60;99.90;;;;;;5115843;28;20160;-70
2021/10/28 05:16:37;;;;;;;21.63;13.65;;;9.50;99.90;;;;;;5114311;28;20052;-70
2021/10/28 05:19:03;;;;;;;18.38;13.68;;;9.50;99.90;;;;;;5113391;28;20048;-70
2021/10/28 05:21:29;;;;;;;21.92;13.05;;;9.50;99.90;;;;;;5113959;28;20036;-70
2021/10/28 05:23:54;;;;;;;22.65;13.98;;;9.50;99.90;;;;;;5113865;28;20040;-69
2021/10/28 05:26:20;;;;;;;18.35;13.00;;;9.50;99.90;;;;;;5115069;28;20051;-69
2021/10/28 05:28:45;;;;;;;18.25;13.88;;;9.50;99.90;;;;;;5113482;28;20035;-69
2021/10/28 05:31:11;;;;;;;17.60;12.90;;;9.50;99.90;;;;;;5113987;28;20041;-69
2021/10/28 05:33:37;;;;;;;21.20;13.43;;;9.50;99.90;;;;;;5114507;28;20028;-69
2021/10/28 05:36:04;;;;;;;19.52;14.18;;;9.50;99.90;;;;;;5114773;28;20097;-69
2021/10/28 05:38:30;;;;;;;18.92;13.85;;;9.50;99.90;;;;;;5113013;28;20122;-70
2021/10/28 05:40:56;;;;;;;20.98;13.73;;;9.40;99.90;;;;;;5114701;28;20122;-69
2021/10/28 05:43:21;;;;;;;21.23;12.63;;;9.40;99.90;;;;;;5113300;28;20040;-69
2021/10/28 05:45:49;;;;;;;19.45;14.02;;;9.40;99.90;;;;;;5113641;28;20044;-69
2021/10/28 05:48:14;;;;;;;20.25;15.00;;;9.40;99.90;;;;;;5113263;28;20047;-69
2021/10/28 05:50:41;;;;;;;23.67;14.35;;;9.40;99.90;;;;;;5114426;28;20050;-69
2021/10/28 05:53:08;;;;;;;20.90;14.10;;;9.30;99.90;;;;;;5114591;28;20456;-69
2021/10/28 05:55:35;;;;;;;22.17;14.45;;;9.40;99.90;;;;;;5114547;28;20130;-69
2021/10/28 05:58:00;;;;;;;19.70;13.95;;;9.30;99.90;;;;;;5114286;28;20039;-69
2021/10/28 06:00:26;;;;;;;20.33;13.90;;;9.40;99.90;;;;;;5114151;28;20035;-69
2021/10/28 06:02:52;;;;;;;21.95;15.15;;;9.30;99.90;;;;;;5113389;28;20031;-69
2021/10/28 06:05:18;;;;;;;19.95;13.10;;;9.40;99.90;;;;;;5112885;28;20491;-69
2021/10/28 06:07:44;;;;;;;21.83;15.45;;;9.40;99.90;;;;;;5113410;28;20126;-69
2021/10/28 06:10:12;;;;;;;27.52;16.05;;;9.40;99.90;;;;;;5113217;28;20485;-69
2021/10/28 06:12:43;;;;;;;25.98;15.90;;;9.30;99.90;;;;;;5114395;28;20058;-69
2021/10/28 06:15:11;;;;;;;17.98;13.95;;;9.30;99.90;;;;;;5114038;28;20123;-69
2021/10/28 06:17:44;;;;;;;23.13;15.48;;;9.40;99.90;;;;;;5096036;28;20042;-69
2021/10/28 06:20:10;;;;;;;22.02;15.02;;;9.30;99.90;;;;;;5113940;28;20084;-69
2021/10/28 06:22:35;;;;;;;24.85;14.77;;;9.30;99.90;;;;;;5113206;28;20403;-69
2021/10/28 06:25:02;;;;;;;24.48;15.93;;;9.30;99.90;;;;;;5113652;28;20541;-69
2021/10/28 06:27:28;;;;;;;22.60;14.95;;;9.30;99.90;;;;;;5113493;28;20418;-69
2021/10/28 06:29:54;;;;;;;25.40;15.73;;;9.30;99.90;;;;;;5112135;28;20046;-69
2021/10/28 06:32:20;;;;;;;22.67;15.88;;;9.30;99.90;;;;;;5095525;28;20044;-69
2021/10/28 06:34:47;;;;;;;25.42;15.02;;;9.30;99.90;;;;;;5113815;28;20119;-69
2021/10/28 06:37:13;;;;;;;24.00;15.27;;;9.30;99.90;;;;;;5114230;28;20035;-69
2021/10/28 06:39:39;;;;;;;19.80;14.30;;;9.30;99.90;;;;;;5113486;28;20471;-69
2021/10/28 06:42:07;;;;;;;25.88;16.25;;;9.30;99.90;;;;;;5112924;28;20046;-69
2021/10/28 06:44:33;;;;;;;23.13;14.68;;;9.30;99.90;;;;;;5114166;28;20416;-69
2021/10/28 06:46:59;;;;;;;23.83;14.55;;;9.30;99.90;;;;;;5112455;28;20040;-69
2021/10/28 06:49:27;;;;;;;22.60;15.45;;;9.30;99.90;;;;;;5095227;28;20042;-69
2021/10/28 06:51:53;;;;;;;21.58;14.35;;;9.30;99.90;;;;;;5113992;28;20040;-69
2021/10/28 06:54:26;;;;;;;26.08;15.55;;;9.40;99.90;;;;;;5114143;28;20109;-69
2021/10/28 07:04:47;;;;;;;24.25;15.10;;;9.60;99.90;;;;;;5112386;28;20048;-69
2021/10/28 07:07:14;;;;;;;26.73;16.60;;;9.60;99.90;;;;;;5113177;28;20494;-69
2021/10/28 07:09:48;;;;;;;24.92;14.95;;;9.60;99.90;;;;;;5113898;28;20046;-69
2021/10/28 07:12:38;;;;;;;27.42;16.30;;;9.70;99.90;;;;;;5112392;28;20501;-68
2021/10/28 07:15:11;;;;;;;22.63;14.65;;;9.80;99.90;;;;;;5112633;28;20478;-69
2021/10/28 07:25:24;;;;;;;23.25;14.90;;;10.30;99.90;;;;;;5116217;28;20047;-69
2021/10/28 07:55:55;;;;;;;27.90;15.50;;;11.60;99.90;;;;;;5117568;28;20043;-69
2021/10/28 08:21:41;;;;;;;19.50;11.45;;;12.30;99.90;;;;;;5115348;28;20079;-69
2021/10/28 08:24:17;;;;;;;26.88;13.23;;;12.30;99.90;;;;;;5115287;28;20487;-69
2021/10/28 08:29:34;;;;;;;18.15;12.23;;;12.40;99.90;;;;;;5114485;28;20035;-70
2021/10/28 08:32:00;;;;;;;20.83;12.77;;;12.30;99.90;;;;;;5115066;28;20040;-70
2021/10/28 08:34:35;;;;;;;18.35;12.85;;;12.30;99.90;;;;;;5115989;28;20039;-70
2021/10/28 08:37:10;;;;;;;18.40;12.00;;;12.30;99.90;;;;;;5116266;28;20556;-70
2021/10/28 08:39:37;;;;;;;22.58;12.65;;;12.30;99.90;;;;;;5115850;28;20040;-70
2021/10/28 08:42:08;;;;;;;19.50;11.57;;;12.30;99.90;;;;;;5116263;28;20092;-70
2021/10/28 08:44:39;;;;;;;18.65;11.88;;;12.30;99.90;;;;;;5116105;28;20054;-69
2021/10/28 08:47:07;;;;;;;18.88;11.77;;;12.30;99.90;;;;;;5114506;28;20379;-69
2021/10/28 08:49:38;;;;;;;24.30;12.38;;;12.30;99.90;;;;;;5115147;28;20039;-68
2021/10/28 08:57:26;;;;;;;16.15;11.05;;;12.40;99.90;;;;;;5115947;28;20035;-69
2021/10/28 09:25:37;;;;;;;21.15;11.70;;;12.70;99.90;;;;;;5113554;28;20492;-70
2021/10/28 09:28:09;;;;;;;21.13;12.23;;;12.70;99.90;;;;;;5097045;28;20040;-68
2021/10/28 09:30:47;;;;;;;15.60;11.55;;;12.70;99.90;;;;;;5113630;28;20044;-68
2021/10/28 09:33:21;;;;;;;15.93;11.32;;;12.70;99.90;;;;;;5114420;28;20040;-69
2021/10/28 09:36:13;;;;;;;20.15;11.20;;;12.80;99.90;;;;;;5115023;28;20408;-70
2021/10/28 09:47:34;;;;;;;17.90;10.45;;;12.90;99.90;;;;;;5114698;28;20075;-70
2021/10/28 09:50:29;;;;;;;17.17;11.23;;;13.00;99.90;;;;;;5114231;28;20036;-70
2021/10/28 09:58:35;;;;;;;16.02;9.95;;;13.20;99.90;;;;;;5114325;28;20112;-69
2021/10/28 10:01:06;;;;;;;16.02;9.70;;;13.20;99.90;;;;;;5104285;28;20047;-68
2021/10/28 10:03:37;;;;;;;17.63;9.80;;;13.20;99.90;;;;;;5094604;28;20111;-67
2021/10/28 10:06:05;;;;;;;15.77;9.15;;;13.30;99.90;;;;;;5094465;28;20104;-68
2021/10/28 10:08:34;;;;;;;15.23;10.27;;;13.40;99.90;;;;;;5093529;28;20036;-68
2021/10/28 10:11:02;;;;;;;17.10;9.70;;;13.40;99.90;;;;;;5094851;28;20111;-69
2021/10/28 10:13:29;;;;;;;16.35;8.98;;;13.50;99.90;;;;;;5093916;28;20131;-68
2021/10/28 10:16:01;;;;;;;14.98;9.57;;;13.50;99.90;;;;;;5094263;28;20155;-68
2021/10/28 10:18:29;;;;;;;18.02;9.70;;;13.60;99.90;;;;;;5094307;28;20040;-68
2021/10/28 12:46:17;;;;;;;7.70;4.80;;;15.40;99.90;;;;;;5095892;28;20048;-70
2021/10/28 13:02:32;;;;;;;7.20;4.18;;;15.60;99.90;;;;;;5094296;28;20048;-71
2021/10/28 13:27:57;;;;;;;8.30;3.97;;;15.60;99.90;;;;;;5095217;28;20492;-71
2021/10/28 13:35:41;;;;;;;7.75;4.22;;;15.80;99.90;;;;;;5098554;28;20052;-72
2021/10/28 13:38:28;;;;;;;7.53;4.22;;;15.80;99.90;;;;;;5103198;28;20040;-72
2021/10/28 13:49:13;;;;;;;9.85;4.32;;;15.70;99.90;;;;;;5114292;28;20039;-72
2021/10/28 13:51:55;;;;;;;6.07;4.20;;;15.80;99.90;;;;;;5115186;28;20043;-71
2021/10/28 13:57:02;;;;;;;8.13;6.28;;;15.80;99.90;;;;;;5114605;28;20039;-69
2021/10/28 14:37:34;;;;;;;14.70;8.85;;;15.40;99.90;;;;;;5112765;28;20044;-70
2021/10/28 14:59:53;;;;;;;17.35;10.18;;;15.20;99.90;;;;;;5113501;28;20047;-71
2021/10/28 15:29:26;;;;;;;15.88;10.77;;;14.60;99.90;;;;;;5112202;28;20043;-70
2021/10/28 15:32:23;;;;;;;14.02;10.23;;;14.50;99.90;;;;;;5113648;28;20094;-70
2021/10/28 15:37:53;;;;;;;15.30;10.02;;;14.40;99.90;;;;;;5115326;28;20048;-70
2021/10/28 16:23:22;;;;;;;15.52;9.65;;;13.40;99.90;;;;;;5095476;28;20048;-71
2021/10/28 16:25:49;;;;;;;16.38;10.52;;;13.30;99.90;;;;;;5095134;28;20397;-71
2021/10/28 16:28:16;;;;;;;10.57;8.98;;;13.30;99.90;;;;;;5095734;28;20429;-71
2021/10/28 16:30:46;;;;;;;14.52;9.68;;;13.20;99.90;;;;;;5095847;28;20380;-71
2021/10/28 16:33:13;;;;;;;13.90;8.90;;;13.20;99.90;;;;;;5096342;28;20036;-71
2021/10/28 16:35:40;;;;;;;13.10;9.48;;;13.10;99.90;;;;;;5096159;28;20044;-70
2021/10/28 16:38:08;;;;;;;13.90;9.07;;;13.10;99.90;;;;;;5094392;28;20069;-70
2021/10/28 16:40:34;;;;;;;13.50;9.05;;;13.00;99.90;;;;;;5077542;28;20726;-70
2021/10/28 16:42:59;;;;;;;14.98;10.18;;;13.00;99.90;;;;;;5095770;28;20042;-70
2021/10/28 16:45:25;;;;;;;13.75;9.70;;;12.90;99.90;;;;;;5094300;28;20043;-71
2021/10/28 16:47:51;;;;;;;15.48;10.27;;;12.90;99.90;;;;;;5093990;28;20097;-70
2021/10/28 16:50:16;;;;;;;11.75;8.88;;;12.90;99.90;;;;;;5093874;28;20036;-70
2021/10/28 16:52:42;;;;;;;12.30;9.15;;;12.80;99.90;;;;;;5077650;28;20044;-71
2021/10/28 16:55:09;;;;;;;14.35;10.05;;;12.70;99.90;;;;;;5095257;28;20051;-71
2021/10/28 16:57:34;;;;;;;11.73;9.38;;;12.70;99.90;;;;;;5093926;28;20075;-71
2021/10/28 17:00:00;;;;;;;16.92;10.50;;;12.70;99.90;;;;;;5094822;28;20459;-71
2021/10/28 17:02:26;;;;;;;14.05;9.98;;;12.60;99.90;;;;;;5095127;28;20039;-71
2021/10/28 17:04:51;;;;;;;13.65;9.60;;;12.60;99.90;;;;;;5095571;28;20082;-71
2021/10/28 17:07:17;;;;;;;13.02;9.57;;;12.50;99.90;;;;;;5094104;28;20050;-71
2021/10/28 17:09:42;;;;;;;14.13;9.43;;;12.50;99.90;;;;;;5094781;28;20146;-71
2021/10/28 17:12:08;;;;;;;14.85;10.40;;;12.40;99.90;;;;;;5093521;28;20040;-71
2021/10/28 17:14:34;;;;;;;16.25;9.27;;;12.40;99.90;;;;;;5095148;28;20040;-70
2021/10/28 17:17:00;;;;;;;13.82;10.00;;;12.40;99.90;;;;;;5095210;28;20578;-70
2021/10/28 17:19:26;;;;;;;12.23;8.73;;;12.30;99.90;;;;;;5093308;28;20048;-70
2021/10/28 17:21:52;;;;;;;15.50;9.90;;;12.30;99.90;;;;;;5093506;28;20048;-70
2021/10/28 17:24:25;;;;;;;14.55;9.13;;;12.20;99.90;;;;;;5095561;28;20047;-71
2021/10/28 17:26:51;;;;;;;14.77;9.60;;;12.30;99.90;;;;;;5094590;28;20551;-70
2021/10/28 17:29:17;;;;;;;12.98;9.10;;;12.30;99.90;;;;;;5094376;28;20150;-71
2021/10/28 17:31:43;;;;;;;13.20;8.20;;;12.20;99.90;;;;;;5094617;28;20065;-71
2021/10/28 17:34:09;;;;;;;12.52;9.45;;;12.20;99.90;;;;;;5095240;28;20119;-70
2021/10/28 17:36:34;;;;;;;15.23;10.18;;;12.20;99.90;;;;;;5094837;28;20133;-71
2021/10/28 17:39:00;;;;;;;15.38;10.73;;;12.20;99.90;;;;;;5094441;28;20453;-71
2021/10/28 17:41:26;;;;;;;14.18;8.95;;;12.20;99.90;;;;;;5094259;28;20035;-71
2021/10/28 17:43:55;;;;;;;11.48;8.95;;;12.20;99.90;;;;;;5094425;28;20369;-71
2021/10/28 17:46:24;;;;;;;11.70;8.40;;;12.20;99.90;;;;;;5094428;28;20036;-71
2021/10/28 17:48:51;;;;;;;13.02;8.43;;;12.10;99.90;;;;;;5094364;28;20035;-71
2021/10/28 17:51:17;;;;;;;18.48;8.88;;;12.10;99.90;;;;;;5094097;28;20123;-71
2021/10/28 17:53:44;;;;;;;11.73;8.38;;;12.10;99.90;;;;;;5094142;28;20488;-71
2021/10/28 17:56:13;;;;;;;13.20;8.55;;;12.00;99.90;;;;;;5094203;28;20044;-71
2021/10/28 17:58:39;;;;;;;11.32;8.25;;;12.00;99.90;;;;;;5094069;28;20072;-71
2021/10/28 18:01:05;;;;;;;13.23;8.20;;;12.00;99.90;;;;;;5093869;28;20507;-71
2021/10/28 18:03:31;;;;;;;13.70;8.70;;;12.00;99.90;;;;;;5093988;28;20040;-71
2021/10/28 18:05:57;;;;;;;11.60;8.57;;;11.90;99.90;;;;;;5093964;28;20052;-70
2021/10/28 18:08:23;;;;;;;12.00;8.55;;;11.90;99.90;;;;;;5092711;28;20395;-70
2021/10/28 18:10:49;;;;;;;13.52;8.45;;;11.90;99.90;;;;;;5093730;28;20040;-71
2021/10/28 18:13:16;;;;;;;15.85;9.82;;;11.80;99.90;;;;;;5092579;28;20400;-71
2021/10/28 18:15:44;;;;;;;14.43;9.98;;;11.80;99.90;;;;;;5094434;28;20050;-71
2021/10/28 18:18:10;;;;;;;12.95;9.55;;;11.80;99.90;;;;;;5093788;28;20036;-71
2021/10/28 18:20:37;;;;;;;15.48;9.02;;;11.70;99.90;;;;;;5093558;28;20043;-70
2021/10/28 18:23:04;;;;;;;11.68;8.82;;;11.70;99.90;;;;;;5093965;28;20040;-70
2021/10/28 18:25:29;;;;;;;13.30;8.70;;;11.70;99.90;;;;;;5093672;28;20036;-71
2021/10/28 18:27:56;;;;;;;11.02;8.32;;;11.70;99.90;;;;;;5094019;28;20121;-71
2021/10/28 18:30:24;;;;;;;10.98;9.32;;;11.60;99.90;;;;;;5092070;28;20044;-71
2021/10/28 18:32:50;;;;;;;12.70;9.98;;;11.60;99.90;;;;;;5093466;28;20068;-71
2021/10/28 18:35:16;;;;;;;13.38;8.52;;;11.60;99.90;;;;;;5108057;28;20031;-71
2021/10/28 18:37:43;;;;;;;12.40;8.70;;;11.50;99.90;;;;;;5113636;28;20390;-71
2021/10/28 18:40:10;;;;;;;11.45;8.50;;;11.50;99.90;;;;;;5111603;28;20086;-70
2021/10/28 18:42:36;;;;;;;11.27;9.13;;;11.50;99.90;;;;;;5113562;28;20491;-70
2021/10/28 18:45:03;;;;;;;11.45;8.77;;;11.50;99.90;;;;;;5113465;28;20031;-70
2021/10/28 18:47:29;;;;;;;11.05;8.45;;;11.50;99.90;;;;;;5113422;28;20032;-71
2021/10/28 18:49:55;;;;;;;12.05;8.77;;;11.40;99.90;;;;;;5112190;28;20050;-70
2021/10/28 18:52:20;;;;;;;12.18;8.68;;;11.40;99.90;;;;;;5113483;28;20392;-70
2021/10/28 18:54:46;;;;;;;14.10;8.88;;;11.40;99.90;;;;;;5114040;28;20383;-70
2021/10/28 18:57:13;;;;;;;14.55;9.40;;;11.30;99.90;;;;;;5113628;28;20109;-70
2021/10/28 18:59:40;;;;;;;15.32;9.38;;;11.20;99.90;;;;;;5113248;28;20609;-70
2021/10/28 19:02:07;;;;;;;12.05;8.75;;;11.20;99.90;;;;;;5113389;28;20101;-70
2021/10/28 19:04:34;;;;;;;13.43;9.18;;;11.20;99.90;;;;;;5112320;28;20046;-70
2021/10/28 19:07:03;;;;;;;13.20;9.68;;;11.20;99.90;;;;;;5112099;28;20507;-70
2021/10/28 19:09:29;;;;;;;11.52;8.80;;;11.20;99.90;;;;;;5111748;28;20039;-70
2021/10/28 19:11:55;;;;;;;13.48;9.68;;;11.20;99.90;;;;;;5114963;28;20122;-70
2021/10/28 19:14:20;;;;;;;14.57;8.82;;;11.10;99.90;;;;;;5116164;28;20093;-70
2021/10/28 19:16:46;;;;;;;13.73;10.00;;;11.10;99.90;;;;;;5116917;28;20044;-70
2021/10/28 19:19:12;;;;;;;13.77;9.50;;;11.10;99.90;;;;;;5117337;28;20418;-70
2021/10/28 19:21:40;;;;;;;13.35;9.18;;;11.00;99.90;;;;;;5117359;28;20111;-70
2021/10/28 19:24:06;;;;;;;10.75;8.80;;;11.00;99.90;;;;;;5117482;28;20035;-70
2021/10/28 19:26:31;;;;;;;11.27;8.90;;;11.00;99.90;;;;;;5117448;28;20046;-68
2021/10/28 19:28:58;;;;;;;10.45;8.77;;;11.00;99.90;;;;;;5117015;28;20407;-70
2021/10/28 19:31:26;;;;;;;14.18;8.75;;;11.00;99.90;;;;;;5117508;28;20070;-69
2021/10/28 19:33:57;;;;;;;11.63;8.90;;;11.00;99.90;;;;;;5117346;28;20073;-70
2021/10/28 19:39:30;;;;;;;12.82;8.15;;;10.90;99.90;;;;;;5104305;28;20470;-70
2021/10/28 19:47:07;;;;;;;12.82;8.93;;;10.90;99.90;;;;;;5115543;28;20051;-70
2021/10/28 19:49:33;;;;;;;12.50;9.25;;;10.80;99.90;;;;;;5115323;28;20092;-70
2021/10/28 19:52:04;;;;;;;14.43;8.75;;;10.80;99.90;;;;;;5116934;28;20437;-70
2021/10/28 19:54:30;;;;;;;13.15;8.43;;;10.80;99.90;;;;;;5117010;28;20039;-70
2021/10/28 19:56:55;;;;;;;10.93;8.43;;;10.90;99.90;;;;;;5115808;28;20096;-70
2021/10/28 19:59:24;;;;;;;15.00;9.20;;;10.80;99.90;;;;;;5116497;28;20476;-70
2021/10/28 20:01:59;;;;;;;11.57;8.43;;;10.80;99.90;;;;;;5116696;27;20380;-70
2021/10/28 20:04:40;;;;;;;13.55;8.65;;;10.80;99.90;;;;;;5117196;27;20475;-70
2021/10/28 20:07:12;;;;;;;13.63;10.30;;;10.80;99.90;;;;;;5116725;28;20085;-70
2021/10/28 20:15:24;;;;;;;13.95;9.52;;;10.60;99.90;;;;;;5116678;28;20130;-69
2021/10/28 20:20:38;;;;;;;12.38;8.85;;;10.60;99.90;;;;;;5116145;28;20051;-70
2021/10/28 20:23:04;;;;;;;14.15;9.95;;;10.50;99.90;;;;;;5116111;28;20488;-70
2021/10/28 20:25:30;;;;;;;16.42;10.50;;;10.60;99.90;;;;;;5116271;27;20048;-70
2021/10/28 20:27:57;;;;;;;14.63;10.40;;;10.50;99.90;;;;;;5116141;28;20040;-70
2021/10/28 20:30:28;;;;;;;15.95;10.60;;;10.50;99.90;;;;;;5114795;28;20039;-70
2021/10/28 20:32:54;;;;;;;16.10;10.45;;;10.50;99.90;;;;;;5116113;28;20040;-70
2021/10/28 20:37:53;;;;;;;16.88;11.40;;;10.60;99.90;;;;;;5114736;28;20051;-70
2021/10/28 20:40:19;;;;;;;16.90;10.68;;;10.60;99.90;;;;;;5115901;28;20040;-70
2021/10/28 20:42:49;;;;;;;18.02;11.98;;;10.50;99.90;;;;;;5116222;28;20040;-70
2021/10/28 20:45:21;;;;;;;15.95;11.13;;;10.40;99.90;;;;;;5116193;28;20046;-70
2021/10/28 20:47:47;;;;;;;15.23;11.63;;;10.50;99.90;;;;;;5097978;28;20494;-70
2021/10/28 20:50:15;;;;;;;15.82;10.98;;;10.50;99.90;;;;;;5115467;28;20036;-70
2021/10/28 20:52:42;;;;;;;16.83;10.82;;;10.50;99.90;;;;;;5116349;28;20035;-70
2021/10/28 20:55:09;;;;;;;16.40;11.85;;;10.50;99.90;;;;;;5114429;28;20624;-70
2021/10/28 20:57:35;;;;;;;19.88;12.13;;;10.50;99.90;;;;;;5116059;28;20074;-70
2021/10/28 21:00:08;;;;;;;16.65;11.88;;;10.40;99.90;;;;;;5114017;28;20110;-70
2021/10/28 21:02:35;;;;;;;16.90;11.48;;;10.50;99.90;;;;;;5114387;28;20035;-70
2021/10/28 21:05:00;;;;;;;21.35;12.10;;;10.50;99.90;;;;;;5115381;28;20036;-70
2021/10/28 21:07:27;;;;;;;20.83;12.35;;;10.50;99.90;;;;;;5115533;28;20110;-70
2021/10/28 21:09:53;;;;;;;20.45;13.35;;;10.40;99.90;;;;;;5115100;28;20391;-70
2021/10/28 21:12:19;;;;;;;17.48;12.45;;;10.40;99.90;;;;;;5114068;28;20036;-70
2021/10/28 21:14:45;;;;;;;21.35;14.27;;;10.40;99.90;;;;;;5114976;28;20036;-70
2021/10/28 21:17:11;;;;;;;17.67;13.77;;;10.40;99.90;;;;;;5115696;28;20089;-70